createdAt,value
2018-08-19T00:03:30.553Z,4.40
2018-08-19T00:08:33.700Z,5.50
2018-08-19T00:13:37.494Z,4.70
2018-08-19T00:18:40.643Z,5.00
2018-08-19T00:23:48.668Z,4.83
2018-08-19T00:28:51.824Z,5.37
2018-08-19T00:33:54.956Z,5.90
2018-08-19T00:38:58.181Z,5.43
2018-08-19T00:44:01.317Z,4.80
2018-08-19T00:49:04.454Z,5.33
2018-08-19T00:54:07.572Z,5.00
2018-08-19T00:59:10.949Z,5.00
2018-08-19T01:04:14.080Z,5.90
2018-08-19T01:09:17.222Z,5.00
2018-08-19T01:14:20.352Z,5.53
2018-08-19T01:19:23.544Z,5.10
2018-08-19T01:24:26.666Z,5.10
2018-08-19T01:29:35.793Z,5.63
2018-08-19T01:34:39.214Z,5.33
2018-08-19T01:39:42.332Z,6.00
2018-08-19T01:44:45.461Z,4.93
2018-08-19T01:49:48.601Z,4.30
2018-08-19T01:54:51.728Z,5.80
2018-08-19T01:59:55.661Z,4.67
2018-08-19T02:04:58.789Z,5.07
2018-08-19T02:10:03.876Z,5.07
2018-08-19T02:15:07.997Z,5.63
2018-08-19T02:20:11.245Z,5.20
2018-08-19T02:25:14.369Z,4.97
2018-08-19T02:30:17.498Z,5.47
2018-08-19T02:35:20.632Z,6.30
2018-08-19T02:40:30.085Z,6.10
2018-08-19T02:45:33.221Z,5.90
2018-08-19T02:50:36.353Z,5.90
2018-08-19T02:55:39.478Z,4.80
2018-08-19T03:00:42.705Z,5.67
2018-08-19T03:05:51.961Z,5.07
2018-08-19T03:10:55.113Z,6.43
2018-08-19T03:15:58.237Z,5.90
2018-08-19T03:21:01.369Z,5.73
2018-08-19T03:26:04.513Z,6.37
2018-08-19T03:31:11.265Z,5.83
2018-08-19T03:36:14.395Z,5.73
2018-08-19T03:41:17.532Z,5.50
2018-08-19T03:46:21.082Z,7.37
2018-08-19T03:51:24.217Z,6.17
2018-08-19T03:56:27.669Z,5.90
2018-08-19T04:01:37.774Z,7.13
2018-08-19T04:06:41.049Z,6.20
2018-08-19T04:11:46.076Z,7.07
2018-08-19T04:16:49.221Z,6.60
2018-08-19T04:21:52.673Z,6.97
2018-08-19T04:26:55.812Z,6.67
2018-08-19T04:31:59.035Z,6.30
2018-08-19T04:37:02.130Z,7.10
2018-08-19T04:42:05.680Z,7.33
2018-08-19T04:47:21.016Z,6.53
2018-08-19T04:52:24.853Z,7.00
2018-08-19T04:57:27.993Z,6.27
2018-08-19T05:02:31.153Z,6.67
2018-08-19T05:07:34.248Z,5.73
2018-08-19T05:12:37.438Z,6.83
2018-08-19T05:17:40.554Z,6.87
2018-08-19T05:22:44.105Z,6.50
2018-08-19T05:27:51.206Z,6.30
2018-08-19T05:32:59.878Z,8.53
2018-08-19T05:38:03.845Z,7.30
2018-08-19T05:43:06.925Z,6.73
2018-08-19T05:48:11.404Z,7.00
2018-08-19T05:53:14.541Z,7.57
2018-08-19T05:58:18.132Z,6.77
2018-08-19T06:03:21.450Z,7.47
2018-08-19T06:08:24.581Z,7.70
2018-08-19T06:13:27.748Z,7.07
2018-08-19T06:18:30.881Z,7.13
2018-08-19T06:23:34.028Z,6.93
2018-08-19T06:28:37.157Z,6.77
2018-08-19T06:33:40.293Z,6.40
2018-08-19T06:38:43.425Z,7.43
2018-08-19T06:43:46.554Z,6.50
2018-08-19T06:48:49.689Z,5.80
2018-08-19T06:53:52.834Z,6.47
2018-08-19T06:58:55.979Z,6.50
2018-08-19T07:03:59.173Z,6.60
2018-08-19T07:09:02.261Z,6.47
2018-08-19T07:14:05.458Z,6.60
2018-08-19T07:19:08.601Z,6.13
2018-08-19T07:24:11.733Z,5.77
2018-08-19T07:29:14.862Z,5.30
2018-08-19T07:34:18.021Z,5.50
2018-08-19T07:39:21.332Z,4.77
2018-08-19T07:44:24.574Z,5.27
2018-08-19T07:49:27.711Z,5.13
2018-08-19T07:54:30.836Z,5.53
2018-08-19T07:59:33.973Z,5.03
2018-08-19T08:04:45.069Z,5.73
2018-08-19T08:09:48.309Z,5.03
2018-08-19T08:14:52.809Z,5.47
2018-08-19T08:20:04.061Z,4.90
2018-08-19T08:25:10.560Z,5.33
2018-08-19T08:30:13.703Z,4.83
2018-08-19T08:35:16.823Z,3.97
2018-08-19T08:40:19.952Z,4.20
2018-08-19T08:45:30.361Z,4.77
2018-08-19T08:50:35.097Z,4.80
2018-08-19T08:55:38.306Z,3.87
2018-08-19T09:00:42.209Z,3.57
2018-08-19T09:05:45.402Z,3.80
2018-08-19T09:10:48.557Z,3.77
2018-08-19T09:15:51.890Z,4.20
2018-08-19T09:20:55.272Z,3.83
2018-08-19T09:25:58.401Z,3.80
2018-08-19T09:31:01.525Z,3.40
2018-08-19T09:36:04.652Z,3.70
2018-08-19T09:41:07.789Z,3.73
2018-08-19T09:46:10.922Z,4.20
2018-08-19T09:51:15.792Z,4.57
2018-08-19T09:56:21.013Z,3.33
2018-08-19T10:01:29.652Z,3.87
2018-08-19T10:06:32.729Z,3.47
2018-08-19T10:11:36.321Z,3.03
2018-08-19T10:16:42.472Z,4.13
2018-08-19T10:21:45.660Z,3.80
2018-08-19T10:26:48.849Z,3.47
2018-08-19T10:31:53.149Z,3.30
2018-08-19T10:36:57.001Z,3.50
2018-08-19T10:42:19.328Z,3.33
2018-08-19T10:47:22.489Z,3.83
2018-08-19T10:52:29.781Z,3.10
2018-08-19T10:57:32.953Z,2.63
2018-08-19T11:02:36.079Z,4.37
2018-08-19T11:07:39.226Z,20.90
2018-08-19T11:12:42.349Z,6.07
2018-08-19T11:17:45.490Z,3.77
2018-08-19T11:22:48.715Z,3.70
2018-08-19T11:27:51.823Z,3.00
2018-08-19T11:32:54.943Z,2.80
2018-08-19T11:37:58.076Z,4.00
2018-08-19T11:43:01.287Z,3.13
2018-08-19T11:48:04.509Z,2.90
2018-08-19T11:53:07.646Z,3.03
2018-08-19T11:58:10.782Z,2.70
2018-08-19T12:03:14.117Z,3.10
2018-08-19T12:08:17.249Z,2.27
2018-08-19T12:13:20.377Z,2.90
2018-08-19T12:18:23.600Z,2.30
2018-08-19T12:23:26.727Z,2.83
2018-08-19T12:28:30.135Z,3.10
2018-08-19T12:33:33.258Z,2.23
2018-08-19T12:39:06.218Z,3.10
2018-08-19T12:44:09.389Z,2.33
2018-08-19T12:49:12.517Z,2.60
2018-08-19T12:54:15.697Z,2.53
2018-08-19T12:59:18.816Z,3.10
2018-08-19T13:04:22.000Z,2.43
2018-08-19T13:09:28.165Z,2.30
2018-08-19T13:14:31.896Z,2.70
2018-08-19T13:19:35.019Z,2.70
2018-08-19T13:24:39.037Z,2.80
2018-08-19T13:29:42.161Z,2.50
2018-08-19T13:34:45.284Z,2.67
2018-08-19T13:39:48.424Z,2.20
2018-08-19T13:44:52.489Z,2.30
2018-08-19T13:49:55.617Z,2.80
2018-08-19T13:54:59.737Z,2.80
2018-08-19T14:00:02.898Z,2.60
2018-08-19T14:05:06.025Z,2.03
2018-08-19T14:10:10.689Z,2.50
2018-08-19T14:15:13.847Z,2.20
2018-08-19T14:20:16.973Z,2.40
2018-08-19T14:25:20.119Z,2.13
2018-08-19T14:30:38.728Z,2.30
2018-08-19T14:35:41.745Z,1.87
2018-08-19T14:40:44.877Z,2.20
2018-08-19T14:45:48.937Z,2.13
2018-08-19T14:50:52.069Z,1.83
2018-08-19T14:56:07.402Z,2.30
2018-08-19T15:01:10.553Z,2.40
2018-08-19T15:06:13.673Z,2.20
2018-08-19T15:11:16.810Z,2.50
2018-08-19T15:16:20.064Z,2.80
2018-08-19T15:21:23.318Z,3.00
2018-08-19T15:26:26.457Z,2.23
2018-08-19T15:31:29.592Z,2.20
2018-08-19T15:36:32.805Z,3.17
2018-08-19T15:41:35.949Z,2.83
2018-08-19T15:46:39.089Z,2.53
2018-08-19T15:51:42.246Z,2.80
2018-08-19T15:56:45.375Z,2.87
2018-08-19T16:01:48.509Z,2.80
2018-08-19T16:06:52.824Z,2.23
2018-08-19T16:11:56.105Z,2.40
2018-08-19T16:17:00.653Z,2.73
2018-08-19T16:22:03.811Z,2.67
2018-08-19T16:27:07.013Z,2.47
2018-08-19T16:32:10.145Z,3.40
2018-08-19T16:37:13.281Z,2.97
2018-08-19T16:42:16.405Z,2.83
2018-08-19T16:47:19.537Z,2.90
2018-08-19T16:52:22.691Z,3.10
2018-08-19T16:57:26.104Z,2.90
2018-08-19T17:02:29.217Z,2.70
2018-08-19T17:07:32.453Z,2.73
2018-08-19T17:12:35.587Z,2.43
2018-08-19T17:17:38.746Z,2.87
2018-08-19T17:22:41.909Z,3.30
2018-08-19T17:27:45.042Z,3.13
2018-08-19T17:32:55.910Z,3.87
2018-08-19T17:38:01.656Z,2.80
2018-08-19T17:43:04.813Z,3.10
2018-08-19T17:48:07.997Z,3.00
2018-08-19T17:53:11.193Z,3.67
2018-08-19T17:58:14.330Z,4.03
2018-08-19T18:03:17.489Z,3.57
2018-08-19T18:08:20.668Z,3.57
2018-08-19T18:13:23.800Z,3.47
2018-08-19T18:18:27.380Z,3.10
2018-08-19T18:23:30.902Z,3.13
2018-08-19T18:28:34.541Z,2.90
2018-08-19T18:33:47.374Z,3.30
2018-08-19T18:38:51.463Z,3.20
2018-08-19T18:43:56.486Z,3.30
2018-08-19T18:49:11.270Z,3.10
2018-08-19T18:54:21.836Z,3.37
2018-08-19T18:59:25.228Z,3.40
2018-08-19T19:04:28.682Z,3.43
2018-08-19T19:09:41.949Z,2.97
2018-08-19T19:14:45.314Z,3.57
2018-08-19T19:19:48.770Z,3.30
2018-08-19T19:24:53.023Z,3.53
2018-08-19T19:30:01.789Z,3.00
2018-08-19T19:35:10.177Z,3.70
2018-08-19T19:40:13.736Z,4.10
2018-08-19T19:45:17.225Z,5.00
2018-08-19T19:50:20.799Z,6.07
2018-08-19T19:55:24.411Z,4.87
2018-08-19T20:00:29.567Z,3.77
2018-08-19T20:05:33.237Z,4.20
2018-08-19T20:10:36.869Z,4.10
2018-08-19T20:15:40.455Z,3.43
2018-08-19T20:20:44.167Z,4.13
2018-08-19T20:25:47.554Z,4.50
2018-08-19T20:30:51.066Z,4.67
2018-08-19T20:35:55.697Z,5.17
2018-08-19T20:41:00.330Z,4.10
2018-08-19T20:46:05.198Z,3.70
2018-08-19T20:51:08.820Z,3.43
2018-08-19T20:56:12.538Z,4.17
2018-08-19T21:01:21.273Z,4.17
2018-08-19T21:06:24.845Z,4.00
2018-08-19T21:11:35.279Z,4.17
2018-08-19T21:16:38.771Z,3.87
2018-08-19T21:21:42.400Z,4.10
2018-08-19T21:26:51.174Z,4.10
2018-08-19T21:31:55.461Z,4.10
2018-08-19T21:36:59.768Z,4.07
2018-08-19T21:42:03.485Z,4.60
2018-08-19T21:47:06.845Z,4.00
2018-08-19T21:52:10.384Z,3.90
2018-08-19T21:57:14.118Z,3.60
2018-08-19T22:02:23.698Z,3.58
2018-08-19T22:07:27.923Z,3.87
2018-08-19T22:12:31.365Z,4.03
2018-08-19T22:17:35.788Z,4.20
2018-08-19T22:22:39.523Z,3.47
2018-08-19T22:27:42.891Z,4.20
2018-08-19T22:32:46.658Z,4.90
2018-08-19T22:37:51.262Z,4.17
2018-08-19T22:42:54.908Z,3.90
2018-08-19T22:47:59.074Z,5.03
2018-08-19T22:53:02.607Z,4.20
2018-08-19T22:58:11.802Z,4.10
2018-08-19T23:03:16.239Z,3.97
2018-08-19T23:08:37.191Z,3.95
2018-08-19T23:15:49.669Z,4.37
2018-08-19T23:20:53.166Z,3.90
2018-08-19T23:25:57.525Z,3.93
2018-08-19T23:31:00.973Z,4.33
2018-08-19T23:36:04.732Z,3.77
2018-08-19T23:41:08.506Z,4.43
2018-08-19T23:46:12.051Z,4.67
2018-08-19T23:51:19.994Z,3.67
2018-08-19T23:56:23.793Z,4.17
